Time;durP1;ratioP1;P1;durP2;ratioP2;P2;SDS_P1;SDS_P2;PMS_P1;PMS_P2;Temp;Humidity;BMP_temperature;BMP_pressure;BME280_temperature;BME280_humidity;BME280_pressure;Samples;Min_cycle;Max_cycle;Signal;HPM_P1;HPM_P2
2023/03/14 00:01:44;;;;;;;4.28;2.88;;;;;;;;;;5054537;28;20024;-70
2023/03/14 00:04:10;;;;;;;4.13;3.30;;;;;;;;;;5054514;28;20032;-70
2023/03/14 00:06:36;;;;;;;4.70;3.30;;;;;;;;;;5054497;28;20021;-70
2023/03/14 00:09:01;;;;;;;5.88;3.65;;;;;;;;;;5054328;28;20041;-70
2023/03/14 00:11:27;;;;;;;3.75;2.95;;;;;;;;;;5054500;28;20056;-71
2023/03/14 00:13:53;;;;;;;5.80;3.80;;;;;;;;;;5054210;28;20029;-71
2023/03/14 00:16:19;;;;;;;4.20;3.22;;;;;;;;;;5054376;28;20034;-71
2023/03/14 00:18:44;;;;;;;4.53;3.67;;;;;;;;;;5054148;28;20032;-71
2023/03/14 00:21:11;;;;;;;4.60;3.45;;;;;;;;;;5054178;28;20021;-71
2023/03/14 00:23:38;;;;;;;4.07;3.35;;;;;;;;;;5052799;28;20036;-71
2023/03/14 00:26:09;;;;;;;3.28;2.83;;;;;;;;;;5054346;28;20025;-71
2023/03/14 00:28:35;;;;;;;4.80;3.35;;;;;;;;;;5053923;28;20025;-71
2023/03/14 00:31:06;;;;;;;5.38;3.63;;;;;;;;;;5055078;28;20388;-72
2023/03/14 00:33:31;;;;;;;;;;;;;;;;;;5054712;28;20021;-71
2023/03/14 00:36:02;;;;;;;5.10;3.08;;;;;;;;;;5054730;28;19913;-72
2023/03/14 00:38:28;;;;;;;4.00;3.15;;;;;;;;;;5053568;28;20493;-71
2023/03/14 00:40:54;;;;;;;5.55;3.97;;;;;;;;;;5054911;28;20036;-71
2023/03/14 00:43:23;;;;;;;5.78;3.35;;;;;;;;;;5054696;28;20432;-71
2023/03/14 00:45:49;;;;;;;5.07;3.42;;;;;;;;;;5054842;28;20021;-72
2023/03/14 00:48:15;;;;;;;5.25;3.67;;;;;;;;;;5054794;28;20112;-71
2023/03/14 00:50:41;;;;;;;4.60;3.45;;;;;;;;;;5054763;28;20108;-72
2023/03/14 00:53:06;;;;;;;4.18;3.25;;;;;;;;;;5054729;28;20068;-71
2023/03/14 00:55:35;;;;;;;4.53;3.58;;;;;;;;;;5054763;28;20699;-71
2023/03/14 00:58:01;;;;;;;5.43;3.40;;;;;;;;;;5054671;28;20032;-70
2023/03/14 01:00:26;;;;;;;4.50;3.70;;;;;;;;;;5054466;28;20021;-69
2023/03/14 01:02:52;;;;;;;4.78;3.55;;;;;;;;;;5053366;28;20033;-70
2023/03/14 01:05:17;;;;;;;4.45;3.63;;;;;;;;;;5054787;28;20059;-71
2023/03/14 01:07:43;;;;;;;5.00;3.92;;;;;;;;;;5054764;28;20025;-71
2023/03/14 01:10:09;;;;;;;5.00;3.63;;;;;;;;;;5054485;28;20104;-71
2023/03/14 01:12:35;;;;;;;5.93;4.18;;;;;;;;;;5054619;28;20032;-70
2023/03/14 01:15:00;;;;;;;7.53;3.67;;;;;;;;;;5054683;28;20366;-70
2023/03/14 01:17:26;;;;;;;4.97;3.60;;;;;;;;;;5054230;28;20377;-71
2023/03/14 01:19:52;;;;;;;5.38;3.58;;;;;;;;;;5054251;28;20025;-72
2023/03/14 01:22:17;;;;;;;4.82;3.53;;;;;;;;;;5054478;28;20037;-72
2023/03/14 01:24:43;;;;;;;4.63;3.67;;;;;;;;;;5054033;28;20488;-72
2023/03/14 01:27:08;;;;;;;4.95;3.63;;;;;;;;;;5054127;28;20025;-73
2023/03/14 01:29:34;;;;;;;8.43;4.13;;;;;;;;;;5054045;28;20115;-72
2023/03/14 01:31:59;;;;;;;5.78;3.42;;;;;;;;;;5054010;28;20144;-70
2023/03/14 01:34:25;;;;;;;7.18;3.65;;;;;;;;;;5053987;28;20040;-71
2023/03/14 01:36:50;;;;;;;5.80;3.97;;;;;;;;;;5035872;28;20028;-70
2023/03/14 01:39:16;;;;;;;6.13;3.95;;;;;;;;;;5052724;28;20086;-70
2023/03/14 01:41:42;;;;;;;6.32;3.67;;;;;;;;;;5054118;28;20060;-70
2023/03/14 01:44:11;;;;;;;6.55;3.85;;;;;;;;;;5053787;28;20477;-71
2023/03/14 01:46:40;;;;;;;3.70;3.30;;;;;;;;;;5053779;28;20060;-71
2023/03/14 01:49:29;;;;;;;5.53;3.65;;;;;;;;;;5053644;28;20108;-70
2023/03/14 01:52:06;;;;;;;5.45;3.58;;;;;;;;;;5053724;28;20025;-71
2023/03/14 01:54:34;;;;;;;5.07;3.67;;;;;;;;;;5053649;28;20045;-71
2023/03/14 01:57:47;;;;;;;6.10;4.00;;;;;;;;;;5053813;28;20475;-70
2023/03/14 02:00:17;;;;;;;4.53;3.25;;;;;;;;;;5031178;28;20041;-70
2023/03/14 02:02:50;;;;;;;5.40;3.90;;;;;;;;;;5031174;28;20123;-70
2023/03/14 02:05:20;;;;;;;6.45;3.80;;;;;;;;;;5043075;28;20605;-70
2023/03/14 02:07:54;;;;;;;7.13;3.67;;;;;;;;;;5053648;28;20606;-70
2023/03/14 02:10:24;;;;;;;5.55;3.80;;;;;;;;;;5053257;28;20074;-70
2023/03/14 02:12:52;;;;;;;5.97;3.60;;;;;;;;;;5052915;28;20590;-72
2023/03/14 02:15:18;;;;;;;6.85;3.85;;;;;;;;;;5053181;28;20040;-71
2023/03/14 02:17:45;;;;;;;5.95;3.83;;;;;;;;;;5053079;28;20033;-72
2023/03/14 02:20:25;;;;;;;5.05;3.90;;;;;;;;;;5052974;28;20036;-72
2023/03/14 02:22:51;;;;;;;5.40;3.80;;;;;;;;;;5053007;28;20418;-71
2023/03/14 02:25:29;;;;;;;6.03;3.90;;;;;;;;;;5053235;28;20060;-71
2023/03/14 02:27:54;;;;;;;6.28;3.80;;;;;;;;;;5053055;28;20096;-71
2023/03/14 02:30:26;;;;;;;6.65;3.75;;;;;;;;;;5052889;28;20033;-71
2023/03/14 02:32:57;;;;;;;4.63;3.58;;;;;;;;;;5052955;28;20509;-71
2023/03/14 02:35:25;;;;;;;5.47;3.50;;;;;;;;;;5052907;28;20290;-71
2023/03/14 02:37:57;;;;;;;4.60;3.67;;;;;;;;;;5052612;28;20051;-71
2023/03/14 02:40:23;;;;;;;3.97;3.28;;;;;;;;;;5053129;28;20381;-71
2023/03/14 02:42:48;;;;;;;5.35;3.83;;;;;;;;;;5052679;28;20023;-71
2023/03/14 02:45:14;;;;;;;5.20;3.75;;;;;;;;;;5052681;28;20077;-70
2023/03/14 02:47:49;;;;;;;5.25;3.95;;;;;;;;;;5052653;28;20056;-71
2023/03/14 02:50:19;;;;;;;4.57;3.80;;;;;;;;;;5051352;28;20112;-71
2023/03/14 02:52:44;;;;;;;4.75;3.80;;;;;;;;;;5052858;28;20020;-71
2023/03/14 02:55:10;;;;;;;6.32;3.92;;;;;;;;;;5052528;28;20581;-71
2023/03/14 02:57:35;;;;;;;6.22;3.95;;;;;;;;;;5052511;28;20489;-70
2023/03/14 03:00:06;;;;;;;5.85;4.15;;;;;;;;;;5052460;28;20112;-71
2023/03/14 03:02:32;;;;;;;5.47;4.05;;;;;;;;;;5052507;28;20033;-70
2023/03/14 03:04:58;;;;;;;5.60;4.30;;;;;;;;;;5052279;28;20048;-70
2023/03/14 03:07:24;;;;;;;6.32;4.07;;;;;;;;;;5052721;28;20021;-71
2023/03/14 03:09:50;;;;;;;4.30;3.50;;;;;;;;;;5052338;28;20059;-70
2023/03/14 03:12:15;;;;;;;7.30;4.03;;;;;;;;;;5052609;28;20056;-70
2023/03/14 03:14:41;;;;;;;4.65;3.78;;;;;;;;;;5051130;28;20037;-70
2023/03/14 03:17:07;;;;;;;6.65;3.80;;;;;;;;;;5052347;28;20025;-71
2023/03/14 03:19:33;;;;;;;5.97;3.72;;;;;;;;;;5052353;28;20029;-70
2023/03/14 03:21:59;;;;;;;5.15;3.90;;;;;;;;;;5051228;28;20028;-70
2023/03/14 03:24:26;;;;;;;5.90;4.00;;;;;;;;;;5052325;28;20033;-70
2023/03/14 03:26:52;;;;;;;4.95;3.75;;;;;;;;;;5056673;28;20017;-71
2023/03/14 03:29:17;;;;;;;5.47;4.22;;;;;;;;;;5055065;28;20519;-70
2023/03/14 03:31:45;;;;;;;5.63;3.97;;;;;;;;;;5056409;28;20100;-70
2023/03/14 03:34:11;;;;;;;6.18;4.13;;;;;;;;;;5056467;28;20036;-70
2023/03/14 03:36:37;;;;;;;5.55;4.18;;;;;;;;;;5056526;28;20028;-70
2023/03/14 03:39:03;;;;;;;5.18;3.80;;;;;;;;;;5056123;28;20035;-70
2023/03/14 03:41:29;;;;;;;4.85;3.75;;;;;;;;;;5056421;28;20099;-71
2023/03/14 03:43:55;;;;;;;5.25;4.00;;;;;;;;;;5056029;28;20051;-70
2023/03/14 03:46:21;;;;;;;4.78;3.75;;;;;;;;;;5056277;28;20476;-70
2023/03/14 03:48:46;;;;;;;6.18;4.18;;;;;;;;;;5055934;28;20116;-71
2023/03/14 03:51:14;;;;;;;6.03;4.18;;;;;;;;;;5056256;28;20069;-70
2023/03/14 03:53:41;;;;;;;6.38;4.30;;;;;;;;;;5055880;28;20086;-71
2023/03/14 03:56:07;;;;;;;5.30;4.00;;;;;;;;;;5056130;28;20021;-70
2023/03/14 03:58:32;;;;;;;6.50;4.18;;;;;;;;;;5056045;28;20389;-71
2023/03/14 04:00:58;;;;;;;6.05;4.15;;;;;;;;;;5055712;28;20051;-71
2023/03/14 04:03:23;;;;;;;5.13;3.92;;;;;;;;;;5054439;28;20025;-71
2023/03/14 04:06:04;;;;;;;4.82;3.80;;;;;;;;;;5055749;28;20029;-70
2023/03/14 04:08:29;;;;;;;5.30;4.38;;;;;;;;;;5056041;28;20044;-70
2023/03/14 04:10:57;;;;;;;5.40;3.95;;;;;;;;;;5054376;28;20037;-70
2023/03/14 04:13:22;;;;;;;5.38;3.75;;;;;;;;;;5055560;28;20047;-70
2023/03/14 04:15:48;;;;;;;6.72;4.38;;;;;;;;;;5055570;28;20025;-70
2023/03/14 04:18:13;;;;;;;5.40;3.65;;;;;;;;;;5055672;28;20107;-70
2023/03/14 04:20:39;;;;;;;6.88;4.05;;;;;;;;;;5054423;28;20024;-70
2023/03/14 04:23:04;;;;;;;5.22;3.80;;;;;;;;;;5055313;28;20021;-70
2023/03/14 04:25:30;;;;;;;5.88;3.90;;;;;;;;;;5055288;28;20021;-70
2023/03/14 04:27:56;;;;;;;5.95;4.13;;;;;;;;;;5055263;28;20029;-70
2023/03/14 04:30:21;;;;;;;5.20;4.00;;;;;;;;;;5055186;28;20044;-70
2023/03/14 04:32:47;;;;;;;6.82;4.00;;;;;;;;;;5055146;28;20028;-70
2023/03/14 04:35:13;;;;;;;7.32;3.95;;;;;;;;;;5054976;28;20029;-70
2023/03/14 04:37:38;;;;;;;6.75;4.10;;;;;;;;;;5054863;28;20041;-70
2023/03/14 04:40:06;;;;;;;6.22;4.05;;;;;;;;;;5055299;28;20032;-71
2023/03/14 04:42:32;;;;;;;4.68;3.63;;;;;;;;;;5055281;28;20036;-70
2023/03/14 04:44:58;;;;;;;6.45;4.03;;;;;;;;;;5053623;28;20036;-70
2023/03/14 04:47:23;;;;;;;5.45;3.88;;;;;;;;;;5054926;28;20021;-71
2023/03/14 04:49:49;;;;;;;5.72;4.25;;;;;;;;;;5055122;28;20057;-70
2023/03/14 04:52:14;;;;;;;5.15;3.70;;;;;;;;;;5036986;28;20052;-71
2023/03/14 04:54:40;;;;;;;5.97;4.00;;;;;;;;;;5054806;28;20135;-70
2023/03/14 04:57:05;;;;;;;7.65;4.20;;;;;;;;;;5054735;28;20048;-70
2023/03/14 04:59:31;;;;;;;5.63;4.18;;;;;;;;;;5055005;28;20032;-70
2023/03/14 05:01:56;;;;;;;4.43;3.50;;;;;;;;;;5055279;28;20029;-70
2023/03/14 05:04:22;;;;;;;4.15;3.50;;;;;;;;;;5054722;28;20477;-71
2023/03/14 05:06:47;;;;;;;5.80;3.95;;;;;;;;;;5054579;28;20028;-70
2023/03/14 05:09:14;;;;;;;5.43;3.78;;;;;;;;;;5054476;28;20029;-71
2023/03/14 05:11:40;;;;;;;5.60;3.60;;;;;;;;;;5053136;28;20025;-70
2023/03/14 05:14:05;;;;;;;4.35;3.42;;;;;;;;;;5054578;28;20083;-70
2023/03/14 05:16:31;;;;;;;4.45;3.83;;;;;;;;;;5054373;28;20036;-70
2023/03/14 05:18:56;;;;;;;5.53;3.85;;;;;;;;;;5054315;28;20029;-70
2023/03/14 05:21:22;;;;;;;4.80;3.70;;;;;;;;;;5054262;28;20060;-71
2023/03/14 05:23:48;;;;;;;5.97;4.15;;;;;;;;;;5054113;28;20029;-71
2023/03/14 05:26:16;;;;;;;9.70;3.80;;;;;;;;;;5052897;28;20052;-70
2023/03/14 05:28:42;;;;;;;5.75;3.85;;;;;;;;;;5054029;28;20025;-70
2023/03/14 05:31:08;;;;;;;5.55;3.97;;;;;;;;;;5054361;28;20036;-71
2023/03/14 05:33:34;;;;;;;6.10;3.97;;;;;;;;;;5054511;28;20055;-70
2023/03/14 05:35:59;;;;;;;6.13;3.95;;;;;;;;;;5054389;28;20461;-70
2023/03/14 05:38:25;;;;;;;5.00;3.60;;;;;;;;;;5053832;28;20446;-70
2023/03/14 05:40:51;;;;;;;6.32;3.72;;;;;;;;;;5053912;28;20171;-70
2023/03/14 05:43:16;;;;;;;6.43;4.13;;;;;;;;;;5055882;28;20017;-70
2023/03/14 05:45:43;;;;;;;5.38;3.65;;;;;;;;;;5054074;28;20350;-70
2023/03/14 05:48:09;;;;;;;5.95;4.13;;;;;;;;;;5056694;28;20060;-69
2023/03/14 05:50:34;;;;;;;5.00;3.70;;;;;;;;;;5053905;28;20021;-69
2023/03/14 05:53:00;;;;;;;4.50;3.42;;;;;;;;;;5053737;28;20025;-70
2023/03/14 05:55:25;;;;;;;5.38;3.80;;;;;;;;;;5054636;28;20025;-70
2023/03/14 05:57:54;;;;;;;4.40;3.55;;;;;;;;;;5054305;28;20075;-69
2023/03/14 06:00:20;;;;;;;5.70;3.70;;;;;;;;;;5054099;28;20064;-70
2023/03/14 06:02:46;;;;;;;4.88;3.60;;;;;;;;;;5053525;28;20115;-71
2023/03/14 06:05:11;;;;;;;7.25;4.28;;;;;;;;;;5053075;28;20116;-70
2023/03/14 06:07:37;;;;;;;6.20;3.72;;;;;;;;;;5055114;28;20060;-70
2023/03/14 06:10:03;;;;;;;5.22;3.50;;;;;;;;;;5057623;28;20039;-69
2023/03/14 06:12:28;;;;;;;6.93;3.90;;;;;;;;;;5051284;28;20073;-70
2023/03/14 06:14:54;;;;;;;4.88;3.85;;;;;;;;;;5048678;28;20052;-70
2023/03/14 06:17:20;;;;;;;4.05;3.45;;;;;;;;;;5048569;28;20147;-68
2023/03/14 06:19:46;;;;;;;4.07;3.60;;;;;;;;;;5049842;28;20037;-73
2023/03/14 06:22:11;;;;;;;5.32;3.60;;;;;;;;;;5051369;28;20118;-72
2023/03/14 06:24:37;;;;;;;5.10;3.67;;;;;;;;;;5050592;28;21013;-69
2023/03/14 06:27:03;;;;;;;3.97;3.58;;;;;;;;;;5048812;28;20028;-69
2023/03/14 06:29:29;;;;;;;4.38;3.28;;;;;;;;;;5048768;28;20424;-71
2023/03/14 06:31:55;;;;;;;4.68;3.30;;;;;;;;;;5050248;28;20082;-70
2023/03/14 06:34:21;;;;;;;5.20;4.00;;;;;;;;;;5051445;28;20025;-71
2023/03/14 06:36:46;;;;;;;4.30;3.90;;;;;;;;;;5050882;28;20021;-67
2023/03/14 06:39:12;;;;;;;4.47;3.35;;;;;;;;;;5050510;28;20031;-71
2023/03/14 06:41:38;;;;;;;4.70;3.72;;;;;;;;;;5051262;28;20029;-68
2023/03/14 06:44:03;;;;;;;6.15;3.80;;;;;;;;;;5050587;28;20538;-68
2023/03/14 06:46:29;;;;;;;5.93;3.67;;;;;;;;;;5051960;28;20025;-69
2023/03/14 06:48:55;;;;;;;4.45;3.60;;;;;;;;;;5052147;28;20028;-70
2023/03/14 06:51:21;;;;;;;5.88;3.97;;;;;;;;;;5052204;28;20525;-68
2023/03/14 06:53:46;;;;;;;5.57;3.75;;;;;;;;;;5052351;28;20487;-70
2023/03/14 06:56:12;;;;;;;6.10;4.07;;;;;;;;;;5052200;28;20033;-68
2023/03/14 06:58:37;;;;;;;5.20;4.00;;;;;;;;;;5052706;28;20056;-71
2023/03/14 07:01:03;;;;;;;5.25;3.40;;;;;;;;;;5052384;28;20060;-68
2023/03/14 07:03:29;;;;;;;5.28;3.55;;;;;;;;;;5052251;28;20074;-68
2023/03/14 07:05:55;;;;;;;4.60;3.80;;;;;;;;;;5052553;28;20021;-71
2023/03/14 07:08:20;;;;;;;4.10;3.50;;;;;;;;;;5052437;28;20532;-69
2023/03/14 07:10:46;;;;;;;5.45;3.70;;;;;;;;;;5052336;28;20025;-71
2023/03/14 07:13:12;;;;;;;5.05;3.67;;;;;;;;;;5052298;28;20030;-68
2023/03/14 07:15:37;;;;;;;4.68;3.90;;;;;;;;;;5052502;28;20013;-71
2023/03/14 07:18:03;;;;;;;4.57;3.55;;;;;;;;;;5052269;28;20467;-69
2023/03/14 07:20:32;;;;;;;4.72;3.10;;;;;;;;;;5052174;28;20040;-71
2023/03/14 07:23:02;;;;;;;6.45;3.92;;;;;;;;;;5043671;28;20029;-74
2023/03/14 07:25:28;;;;;;;5.55;3.53;;;;;;;;;;5027712;28;20034;-71
2023/03/14 07:27:53;;;;;;;4.53;3.45;;;;;;;;;;5029722;28;20032;-71
2023/03/14 07:30:19;;;;;;;6.78;3.70;;;;;;;;;;5030710;28;20038;-71
2023/03/14 07:32:45;;;;;;;4.07;3.60;;;;;;;;;;5030727;28;20025;-71
2023/03/14 07:35:10;;;;;;;6.25;3.97;;;;;;;;;;5030055;28;20561;-70
2023/03/14 07:37:36;;;;;;;4.75;3.22;;;;;;;;;;5029653;28;20045;-71
2023/03/14 07:40:01;;;;;;;4.47;3.40;;;;;;;;;;5030521;28;20029;-71
2023/03/14 07:42:29;;;;;;;5.03;3.58;;;;;;;;;;5030509;28;20036;-72
2023/03/14 07:44:54;;;;;;;5.45;3.63;;;;;;;;;;5029834;28;20037;-71
2023/03/14 07:47:20;;;;;;;5.78;3.72;;;;;;;;;;5030717;28;20034;-73
2023/03/14 07:49:46;;;;;;;7.03;3.90;;;;;;;;;;5045807;28;20170;-69
2023/03/14 07:52:11;;;;;;;6.43;4.03;;;;;;;;;;5029118;28;20057;-70
2023/03/14 07:54:37;;;;;;;5.38;3.78;;;;;;;;;;5030743;28;20024;-70
2023/03/14 07:57:03;;;;;;;4.20;3.30;;;;;;;;;;5030214;28;20091;-70
2023/03/14 07:59:29;;;;;;;5.85;3.80;;;;;;;;;;5030320;28;20106;-70
2023/03/14 08:01:54;;;;;;;6.35;3.40;;;;;;;;;;5030345;28;20103;-72
2023/03/14 08:04:20;;;;;;;5.28;3.83;;;;;;;;;;5028952;28;20461;-71
2023/03/14 08:06:45;;;;;;;6.28;3.60;;;;;;;;;;5030509;28;20040;-71
2023/03/14 08:09:11;;;;;;;4.88;3.63;;;;;;;;;;5030277;28;20456;-71
2023/03/14 08:11:37;;;;;;;4.25;3.40;;;;;;;;;;5032408;28;20087;-69
2023/03/14 08:14:03;;;;;;;5.50;3.67;;;;;;;;;;5032626;28;20448;-72
2023/03/14 08:16:28;;;;;;;5.97;3.53;;;;;;;;;;5034005;28;20029;-71
2023/03/14 08:18:54;;;;;;;5.00;3.80;;;;;;;;;;5033840;28;20053;-72
2023/03/14 08:21:20;;;;;;;4.03;3.00;;;;;;;;;;5033811;28;20331;-71
2023/03/14 08:23:45;;;;;;;3.78;3.38;;;;;;;;;;5048869;28;20033;-69
2023/03/14 08:26:11;;;;;;;4.82;3.47;;;;;;;;;;5033906;28;20382;-72
2023/03/14 08:28:40;;;;;;;5.28;3.45;;;;;;;;;;5033906;28;20040;-71
2023/03/14 08:31:05;;;;;;;5.65;4.07;;;;;;;;;;5034103;28;20021;-71
2023/03/14 08:33:31;;;;;;;4.50;3.47;;;;;;;;;;5033986;28;20547;-71
2023/03/14 08:35:59;;;;;;;4.88;3.35;;;;;;;;;;5048857;28;20440;-71
2023/03/14 08:38:25;;;;;;;5.15;3.55;;;;;;;;;;5033093;28;20049;-71
2023/03/14 08:41:01;;;;;;;4.60;3.47;;;;;;;;;;5033837;28;20040;-72
2023/03/14 08:43:28;;;;;;;4.80;3.60;;;;;;;;;;5033374;28;20021;-71
2023/03/14 08:45:58;;;;;;;5.10;3.17;;;;;;;;;;5033539;28;20036;-72
2023/03/14 08:48:24;;;;;;;5.07;3.33;;;;;;;;;;5033555;28;20373;-71
2023/03/14 08:50:50;;;;;;;3.80;3.15;;;;;;;;;;5033706;28;20033;-71
2023/03/14 08:53:15;;;;;;;4.32;3.35;;;;;;;;;;5033392;28;20466;-70
2023/03/14 08:55:41;;;;;;;4.05;3.20;;;;;;;;;;5033266;28;20036;-70
2023/03/14 08:58:06;;;;;;;4.85;3.08;;;;;;;;;;5033479;28;20049;-70
2023/03/14 09:00:32;;;;;;;5.82;3.20;;;;;;;;;;5048475;28;20477;-71
2023/03/14 09:02:58;;;;;;;3.35;3.00;;;;;;;;;;5033181;28;20112;-71
2023/03/14 09:05:23;;;;;;;4.85;3.30;;;;;;;;;;5033112;28;20028;-71
2023/03/14 09:07:49;;;;;;;3.55;3.03;;;;;;;;;;5033033;28;20026;-71
2023/03/14 09:10:15;;;;;;;4.95;3.08;;;;;;;;;;5032999;28;20048;-70
2023/03/14 09:12:41;;;;;;;3.63;3.00;;;;;;;;;;5032769;28;20036;-71
2023/03/14 09:15:07;;;;;;;4.47;3.00;;;;;;;;;;5032899;28;20034;-69
2023/03/14 09:17:33;;;;;;;3.95;3.00;;;;;;;;;;5033216;28;20041;-70
2023/03/14 09:19:58;;;;;;;5.53;3.55;;;;;;;;;;5032751;28;20493;-70
2023/03/14 09:22:24;;;;;;;4.72;3.20;;;;;;;;;;5031666;28;20057;-70
2023/03/14 09:24:49;;;;;;;3.95;3.00;;;;;;;;;;5032489;28;20030;-70
2023/03/14 09:27:15;;;;;;;4.40;3.00;;;;;;;;;;5031629;28;20434;-70
2023/03/14 09:29:41;;;;;;;4.28;3.13;;;;;;;;;;5032578;28;20485;-70
2023/03/14 09:32:06;;;;;;;5.28;3.60;;;;;;;;;;5047637;28;20029;-70
2023/03/14 09:34:34;;;;;;;4.05;3.03;;;;;;;;;;5032658;28;20045;-71
2023/03/14 09:37:01;;;;;;;4.45;3.08;;;;;;;;;;5030604;28;20061;-70
2023/03/14 09:39:26;;;;;;;3.65;3.00;;;;;;;;;;5032422;28;20052;-70
2023/03/14 09:41:56;;;;;;;4.50;3.10;;;;;;;;;;5031134;28;20466;-70
2023/03/14 09:44:26;;;;;;;4.13;3.25;;;;;;;;;;5032334;28;20041;-70
2023/03/14 09:46:57;;;;;;;3.63;2.83;;;;;;;;;;5032246;28;20026;-70
2023/03/14 09:49:33;;;;;;;4.40;3.03;;;;;;;;;;5032117;28;20049;-70
2023/03/14 09:52:04;;;;;;;3.90;3.00;;;;;;;;;;5032343;28;20048;-70
2023/03/14 09:54:41;;;;;;;4.57;3.05;;;;;;;;;;5032131;28;20497;-70
2023/03/14 09:57:13;;;;;;;3.22;2.83;;;;;;;;;;5032301;28;20040;-70
2023/03/14 09:59:39;;;;;;;4.40;3.15;;;;;;;;;;5032071;28;20362;-70
2023/03/14 10:02:31;;;;;;;4.97;2.85;;;;;;;;;;5031901;28;20037;-70
2023/03/14 10:04:57;;;;;;;4.30;3.20;;;;;;;;;;5031791;28;20041;-71
2023/03/14 10:07:33;;;;;;;4.03;2.83;;;;;;;;;;5031799;28;20108;-69
2023/03/14 10:09:59;;;;;;;5.72;3.00;;;;;;;;;;5032168;28;20033;-70
2023/03/14 10:12:33;;;;;;;3.78;2.83;;;;;;;;;;5047322;28;20445;-70
2023/03/14 10:15:05;;;;;;;4.60;3.10;;;;;;;;;;5031705;28;20056;-70
2023/03/14 10:17:40;;;;;;;4.78;2.92;;;;;;;;;;5031561;28;20472;-70
2023/03/14 10:20:06;;;;;;;3.20;2.90;;;;;;;;;;5031616;28;20567;-70
2023/03/14 10:22:32;;;;;;;3.80;3.03;;;;;;;;;;5031728;28;20032;-70
2023/03/14 10:25:04;;;;;;;5.00;3.30;;;;;;;;;;5031701;28;20068;-70
2023/03/14 10:27:32;;;;;;;3.97;2.80;;;;;;;;;;5031208;28;20418;-71
2023/03/14 10:30:03;;;;;;;4.15;2.88;;;;;;;;;;5031628;28;20071;-70
2023/03/14 10:32:35;;;;;;;4.90;2.78;;;;;;;;;;5031513;28;20025;-70
2023/03/14 10:35:08;;;;;;;4.38;3.10;;;;;;;;;;5031055;28;20105;-70
2023/03/14 10:37:36;;;;;;;3.15;2.70;;;;;;;;;;5031013;28;20128;-70
2023/03/14 10:40:05;;;;;;;4.90;3.22;;;;;;;;;;5031267;28;20030;-70
2023/03/14 10:42:39;;;;;;;3.67;3.15;;;;;;;;;;5031449;28;20113;-70
2023/03/14 10:45:15;;;;;;;4.13;3.10;;;;;;;;;;5030979;28;20071;-70
2023/03/14 10:47:52;;;;;;;4.35;3.03;;;;;;;;;;5031356;28;20037;-70
2023/03/14 10:50:30;;;;;;;3.08;2.72;;;;;;;;;;5031269;28;20386;-70
2023/03/14 10:52:57;;;;;;;3.17;2.88;;;;;;;;;;5030874;28;20064;-70
2023/03/14 10:55:26;;;;;;;4.00;3.00;;;;;;;;;;5030807;28;20041;-69
2023/03/14 10:57:51;;;;;;;4.40;3.08;;;;;;;;;;5030842;28;20355;-71
2023/03/14 11:00:20;;;;;;;4.25;2.42;;;;;;;;;;5031180;28;20665;-70
2023/03/14 11:03:10;;;;;;;3.13;2.72;;;;;;;;;;5030767;28;20378;-72
2023/03/14 11:06:01;;;;;;;3.65;3.05;;;;;;;;;;5030699;28;20470;-70
2023/03/14 11:09:05;;;;;;;4.50;2.97;;;;;;;;;;5030194;28;20433;-68
2023/03/14 11:11:31;;;;;;;3.35;2.88;;;;;;;;;;5029202;28;20045;-70
2023/03/14 11:14:48;;;;;;;3.38;3.03;;;;;;;;;;5030881;28;20036;-69
2023/03/14 11:17:47;;;;;;;4.63;2.90;;;;;;;;;;5018234;28;20041;-69
2023/03/14 11:20:46;;;;;;;3.85;3.10;;;;;;;;;;5025194;28;20037;-69
2023/03/14 11:23:22;;;;;;;5.28;3.15;;;;;;;;;;5030278;28;20033;-69
2023/03/14 11:26:26;;;;;;;3.25;2.60;;;;;;;;;;5030537;28;20492;-69
2023/03/14 11:28:58;;;;;;;3.75;2.72;;;;;;;;;;5030232;28;20127;-69
2023/03/14 11:31:35;;;;;;;4.15;3.10;;;;;;;;;;5030479;28;20093;-69
2023/03/14 11:34:42;;;;;;;5.35;2.90;;;;;;;;;;5030445;28;20381;-72
2023/03/14 11:37:26;;;;;;;3.95;2.95;;;;;;;;;;5028625;28;20102;-69
2023/03/14 11:40:00;;;;;;;5.03;2.60;;;;;;;;;;5030410;28;20041;-68
2023/03/14 11:42:27;;;;;;;3.85;2.85;;;;;;;;;;5047376;28;20025;-70
2023/03/14 11:44:56;;;;;;;4.38;3.25;;;;;;;;;;5050206;28;20033;-69
2023/03/14 11:47:37;;;;;;;4.57;3.03;;;;;;;;;;5054090;28;20373;-70
2023/03/14 11:50:23;;;;;;;5.13;3.20;;;;;;;;;;5052865;28;20028;-69
2023/03/14 11:53:02;;;;;;;4.13;3.28;;;;;;;;;;5054261;28;20576;-69
2023/03/14 11:55:40;;;;;;;4.75;2.90;;;;;;;;;;5054409;28;20101;-70
2023/03/14 11:58:39;;;;;;;3.53;2.85;;;;;;;;;;5054057;28;20037;-70
2023/03/14 12:01:10;;;;;;;5.82;2.90;;;;;;;;;;5051786;28;20108;-69
2023/03/14 12:04:11;;;;;;;4.65;3.10;;;;;;;;;;5052913;28;20083;-70
2023/03/14 12:06:48;;;;;;;3.58;2.97;;;;;;;;;;5050208;28;20037;-69
2023/03/14 12:09:15;;;;;;;4.32;2.92;;;;;;;;;;5046995;28;20033;-69
2023/03/14 12:11:58;;;;;;;4.00;2.92;;;;;;;;;;5053817;28;20035;-70
2023/03/14 12:14:33;;;;;;;4.13;2.90;;;;;;;;;;5052711;28;20029;-69
2023/03/14 12:17:18;;;;;;;5.13;2.90;;;;;;;;;;5054217;28;20417;-70
2023/03/14 12:19:44;;;;;;;5.25;3.00;;;;;;;;;;5052341;28;20102;-70
2023/03/14 12:22:12;;;;;;;5.85;3.08;;;;;;;;;;5067443;28;20029;-69
2023/03/14 12:24:44;;;;;;;7.00;3.10;;;;;;;;;;5050769;28;20040;-69
2023/03/14 12:27:32;;;;;;;4.68;2.95;;;;;;;;;;5049722;28;20025;-70
2023/03/14 12:30:01;;;;;;;5.13;3.30;;;;;;;;;;5031799;28;20041;-69
2023/03/14 12:32:27;;;;;;;5.97;3.30;;;;;;;;;;5032930;28;20068;-69
2023/03/14 12:34:53;;;;;;;5.05;3.03;;;;;;;;;;5033233;28;20057;-69
2023/03/14 12:37:25;;;;;;;4.70;2.60;;;;;;;;;;5031461;28;20060;-69
2023/03/14 12:40:17;;;;;;;4.05;2.78;;;;;;;;;;5033194;28;20037;-69
2023/03/14 12:43:04;;;;;;;5.07;2.85;;;;;;;;;;5032689;28;20037;-69
2023/03/14 12:45:35;;;;;;;4.10;2.97;;;;;;;;;;5031618;28;20049;-69
2023/03/14 12:48:15;;;;;;;3.90;2.90;;;;;;;;;;5032980;28;20108;-69
2023/03/14 12:50:42;;;;;;;4.38;2.97;;;;;;;;;;5033509;28;20056;-70
2023/03/14 12:53:18;;;;;;;5.10;2.80;;;;;;;;;;5032012;28;20029;-69
2023/03/14 12:56:07;;;;;;;3.20;2.90;;;;;;;;;;5033334;28;20030;-70
2023/03/14 12:59:01;;;;;;;4.20;3.20;;;;;;;;;;5029265;28;20044;-69
2023/03/14 13:01:27;;;;;;;3.42;2.70;;;;;;;;;;5033175;28;20026;-69
2023/03/14 13:03:55;;;;;;;6.35;3.10;;;;;;;;;;5031841;28;20033;-69
2023/03/14 13:07:00;;;;;;;6.90;2.97;;;;;;;;;;5031530;28;20026;-69
2023/03/14 13:09:25;;;;;;;5.88;3.25;;;;;;;;;;5021754;28;20039;-69
2023/03/14 13:11:55;;;;;;;4.15;3.00;;;;;;;;;;5048102;28;20034;-69
2023/03/14 13:14:22;;;;;;;3.97;2.92;;;;;;;;;;5032053;28;20497;-68
2023/03/14 13:16:48;;;;;;;4.93;3.20;;;;;;;;;;5031540;28;20033;-69
2023/03/14 13:19:20;;;;;;;4.10;2.83;;;;;;;;;;5032979;28;20064;-68
2023/03/14 13:21:46;;;;;;;3.75;3.35;;;;;;;;;;5032763;28;20501;-69
2023/03/14 13:24:23;;;;;;;3.90;3.08;;;;;;;;;;5032650;28;20039;-69
2023/03/14 13:26:53;;;;;;;4.53;3.13;;;;;;;;;;5032829;28;20075;-69
2023/03/14 13:29:24;;;;;;;5.47;2.80;;;;;;;;;;5047822;28;20033;-69
2023/03/14 13:31:53;;;;;;;4.35;2.60;;;;;;;;;;5032424;28;20091;-68
2023/03/14 13:34:20;;;;;;;5.57;2.97;;;;;;;;;;5032389;28;20029;-68
2023/03/14 13:36:49;;;;;;;3.75;2.83;;;;;;;;;;5032242;28;20025;-68
2023/03/14 13:39:19;;;;;;;4.50;2.83;;;;;;;;;;5032264;28;20035;-69
2023/03/14 13:41:45;;;;;;;;;;;;;;;;;;5033016;28;20026;-68
2023/03/14 13:44:19;;;;;;;3.90;3.03;;;;;;;;;;5032116;28;19939;-69
2023/03/14 13:46:45;;;;;;;4.13;3.00;;;;;;;;;;5032459;28;20044;-69
2023/03/14 13:49:18;;;;;;;6.55;2.88;;;;;;;;;;5032271;28;20022;-70
2023/03/14 13:51:44;;;;;;;3.67;2.83;;;;;;;;;;5032724;28;20041;-71
2023/03/14 13:54:18;;;;;;;3.45;3.15;;;;;;;;;;5050663;28;20082;-69
2023/03/14 13:56:44;;;;;;;3.85;2.80;;;;;;;;;;5040952;28;20040;-69
2023/03/14 13:59:33;;;;;;;4.28;2.78;;;;;;;;;;5032033;28;20478;-69
2023/03/14 14:02:04;;;;;;;3.43;2.80;;;;;;;;;;5049127;28;20033;-67
2023/03/14 14:04:35;;;;;;;4.72;3.20;;;;;;;;;;5050481;28;20041;-69
2023/03/14 14:07:06;;;;;;;5.03;3.00;;;;;;;;;;5031879;28;20040;-69
2023/03/14 14:09:53;;;;;;;3.28;2.80;;;;;;;;;;5031339;28;20474;-70
2023/03/14 14:12:38;;;;;;;5.93;2.92;;;;;;;;;;5031786;28;20037;-67
2023/03/14 14:15:10;;;;;;;5.53;3.00;;;;;;;;;;5043153;28;20079;-71
2023/03/14 14:17:43;;;;;;;4.38;3.08;;;;;;;;;;5046457;28;20049;-70
2023/03/14 14:20:35;;;;;;;3.97;2.90;;;;;;;;;;5047006;28;20535;-70
2023/03/14 14:23:06;;;;;;;3.42;3.13;;;;;;;;;;5044427;28;20045;-70
2023/03/14 14:25:32;;;;;;;3.70;2.90;;;;;;;;;;5051410;28;20025;-69
2023/03/14 14:27:59;;;;;;;5.03;3.33;;;;;;;;;;5047256;28;20032;-69
2023/03/14 14:30:29;;;;;;;3.35;2.55;;;;;;;;;;5051246;28;20481;-70
2023/03/14 14:33:11;;;;;;;3.38;2.75;;;;;;;;;;5052043;28;20029;-70
2023/03/14 14:35:37;;;;;;;3.08;2.50;;;;;;;;;;5052104;28;20511;-71
2023/03/14 14:38:12;;;;;;;3.67;2.92;;;;;;;;;;5051223;28;20085;-69
2023/03/14 14:40:45;;;;;;;3.80;3.08;;;;;;;;;;5050808;28;20067;-69
2023/03/14 14:43:20;;;;;;;8.23;2.70;;;;;;;;;;5066495;28;20551;-69
2023/03/14 14:45:50;;;;;;;7.85;3.22;;;;;;;;;;5048279;28;20116;-69
2023/03/14 14:48:20;;;;;;;7.75;3.47;;;;;;;;;;5050097;28;20132;-68
2023/03/14 14:50:55;;;;;;;4.38;3.15;;;;;;;;;;5051024;28;20070;-69
2023/03/14 14:53:31;;;;;;;7.07;2.67;;;;;;;;;;5046754;28;20035;-68
2023/03/14 14:56:03;;;;;;;3.55;2.88;;;;;;;;;;5049701;28;20468;-68
2023/03/14 14:58:34;;;;;;;4.78;3.42;;;;;;;;;;5051085;28;20029;-69